createdAt,value
2017-11-01T00:00:07.754Z,960.08
2017-11-01T00:01:07.739Z,960.07
2017-11-01T00:02:07.724Z,960.06
2017-11-01T00:03:07.708Z,960.04
2017-11-01T00:04:07.696Z,960.06
2017-11-01T00:05:07.679Z,960.02
2017-11-01T00:06:07.663Z,960.03
2017-11-01T00:07:07.648Z,959.96
2017-11-01T00:08:07.638Z,959.97
2017-11-01T00:09:07.624Z,959.96
2017-11-01T00:10:07.603Z,959.95
2017-11-01T00:11:07.589Z,959.93
2017-11-01T00:12:07.574Z,959.97
2017-11-01T00:13:07.564Z,959.96
2017-11-01T00:14:07.544Z,959.9
2017-11-01T00:15:07.549Z,959.93
2017-11-01T00:16:07.513Z,959.88
2017-11-01T00:17:07.498Z,959.9
2017-11-01T00:18:07.482Z,959.9
2017-11-01T00:19:07.471Z,959.82
2017-11-01T00:20:07.454Z,959.83
2017-11-01T00:21:07.437Z,959.86
2017-11-01T00:22:07.423Z,959.88
2017-11-01T00:23:07.407Z,959.91
2017-11-01T00:24:07.393Z,959.91
2017-11-01T00:25:07.379Z,959.96
2017-11-01T00:26:07.363Z,959.96
2017-11-01T00:27:07.348Z,959.91
2017-11-01T00:28:07.330Z,959.95
2017-11-01T00:29:07.316Z,960.01
2017-11-01T00:30:07.301Z,959.98
2017-11-01T00:31:07.289Z,959.95
2017-11-01T00:32:07.271Z,959.96
2017-11-01T00:33:07.258Z,959.97
2017-11-01T00:34:07.242Z,959.96
2017-11-01T00:35:07.227Z,959.94
2017-11-01T00:36:07.240Z,959.98
2017-11-01T00:37:07.198Z,959.96
2017-11-01T00:38:07.181Z,959.94
2017-11-01T00:39:07.190Z,959.95
2017-11-01T00:40:07.149Z,959.92
2017-11-01T00:41:07.154Z,959.92
2017-11-01T00:42:07.124Z,959.87
2017-11-01T00:43:07.118Z,959.9
2017-11-01T00:44:07.110Z,959.9
2017-11-01T00:45:07.111Z,959.84
2017-11-01T00:46:07.140Z,959.85
2017-11-01T00:47:07.080Z,959.88
2017-11-01T00:48:07.104Z,959.83
2017-11-01T00:49:07.103Z,959.83
2017-11-01T00:50:07.032Z,959.82
2017-11-01T00:51:07.012Z,959.81
2017-11-01T00:52:07.055Z,959.72
2017-11-01T00:53:06.985Z,959.72
2017-11-01T00:54:06.975Z,959.75
2017-11-01T00:55:06.953Z,959.73
2017-11-01T00:56:06.944Z,959.72
2017-11-01T00:57:06.975Z,959.75
2017-11-01T00:58:06.950Z,959.7
2017-11-01T00:59:06.890Z,959.73
2017-11-01T01:00:06.912Z,959.71
2017-11-01T01:01:06.845Z,959.71
2017-11-01T01:02:06.877Z,959.71
2017-11-01T01:03:06.832Z,959.72
2017-11-01T01:04:06.887Z,959.73
2017-11-01T01:05:06.801Z,959.8
2017-11-01T01:06:06.803Z,959.78
2017-11-01T01:07:06.782Z,959.78
2017-11-01T01:08:06.769Z,959.78
2017-11-01T01:09:06.716Z,959.76
2017-11-01T01:10:06.802Z,959.72
2017-11-01T01:11:06.772Z,959.76
2017-11-01T01:12:06.709Z,959.77
2017-11-01T01:13:06.690Z,959.73
2017-11-01T01:14:06.715Z,959.79
2017-11-01T01:15:06.685Z,959.8
2017-11-01T01:16:06.687Z,959.79
2017-11-01T01:17:06.658Z,959.77
2017-11-01T01:18:06.603Z,959.74
2017-11-01T01:19:06.622Z,959.75
2017-11-01T01:20:06.606Z,959.77
2017-11-01T01:21:06.543Z,959.72
2017-11-01T01:22:06.637Z,959.74
2017-11-01T01:23:06.524Z,959.69
2017-11-01T01:24:06.558Z,959.73
2017-11-01T01:25:06.508Z,959.67
2017-11-01T01:26:06.518Z,959.71
2017-11-01T01:27:06.449Z,959.73
2017-11-01T01:28:06.517Z,959.73
2017-11-01T01:29:06.430Z,959.74
2017-11-01T01:30:06.463Z,959.72
2017-11-01T01:31:06.390Z,959.74
2017-11-01T01:32:06.420Z,959.7
2017-11-01T01:33:06.361Z,959.74
2017-11-01T01:34:06.417Z,959.67
2017-11-01T01:35:06.331Z,959.63
2017-11-01T01:36:06.386Z,959.6
2017-11-01T01:37:06.302Z,959.65
2017-11-01T01:38:06.349Z,959.65
2017-11-01T01:39:06.272Z,959.62
2017-11-01T01:40:06.434Z,959.64
2017-11-01T01:41:06.244Z,959.62
2017-11-01T01:42:06.286Z,959.58
2017-11-01T01:43:06.214Z,959.55
2017-11-01T01:44:06.260Z,959.54
2017-11-01T01:45:06.186Z,959.55
2017-11-01T01:46:06.269Z,959.56
2017-11-01T01:47:06.188Z,959.49
2017-11-01T01:48:06.227Z,959.46
2017-11-01T01:49:06.126Z,959.44
2017-11-01T01:50:06.176Z,959.43
2017-11-01T01:51:06.098Z,959.37
2017-11-01T01:52:06.244Z,959.38
2017-11-01T01:53:06.071Z,959.31
2017-11-01T01:54:06.172Z,959.33
2017-11-01T01:55:06.046Z,959.39
2017-11-01T01:56:06.092Z,959.32
2017-11-01T01:57:06.010Z,959.31
2017-11-01T01:58:06.102Z,959.33
2017-11-01T01:59:05.991Z,959.31
2017-11-01T02:00:06.038Z,959.35
2017-11-01T02:01:05.951Z,959.33
2017-11-01T02:02:06.037Z,959.33
2017-11-01T02:03:05.922Z,959.27
2017-11-01T02:04:06.017Z,959.28
2017-11-01T02:05:05.893Z,959.29
2017-11-01T02:06:05.925Z,959.28
2017-11-01T02:07:05.864Z,959.3
2017-11-01T02:08:05.894Z,959.28
2017-11-01T02:09:05.852Z,959.24
2017-11-01T02:10:05.908Z,959.22
2017-11-01T02:11:05.806Z,959.19
2017-11-01T02:12:05.854Z,959.24
2017-11-01T02:13:05.777Z,959.2
2017-11-01T02:14:05.832Z,959.17
2017-11-01T02:15:05.755Z,959.15
2017-11-01T02:16:05.909Z,959.15
2017-11-01T02:17:05.725Z,959.09
2017-11-01T02:18:05.733Z,959.1
2017-11-01T02:19:05.719Z,959.1
2017-11-01T02:20:05.734Z,959.08
2017-11-01T02:21:05.938Z,959.13
2017-11-01T02:22:05.776Z,959.08
2017-11-01T02:23:05.630Z,959.11
2017-11-01T02:24:05.617Z,959.05
2017-11-01T02:25:05.601Z,959.07
2017-11-01T02:26:05.587Z,959.12
2017-11-01T02:27:05.573Z,959.12
2017-11-01T02:28:05.558Z,959.09
2017-11-01T02:29:05.543Z,959.06
2017-11-01T02:30:05.530Z,959.04
2017-11-01T02:31:05.514Z,959.02
2017-11-01T02:32:05.500Z,958.96
2017-11-01T02:33:05.486Z,959.03
2017-11-01T02:34:05.472Z,959.04
2017-11-01T02:35:05.458Z,959.01
2017-11-01T02:36:05.442Z,959.02
2017-11-01T02:37:05.428Z,959
2017-11-01T02:38:05.413Z,958.97
2017-11-01T02:39:05.398Z,958.97
2017-11-01T02:40:05.386Z,958.95
2017-11-01T02:41:05.373Z,958.98
2017-11-01T02:42:05.354Z,958.95
2017-11-01T02:43:05.340Z,958.97
2017-11-01T02:44:05.327Z,958.94
2017-11-01T02:45:05.311Z,958.91
2017-11-01T02:46:05.297Z,958.92
2017-11-01T02:47:05.283Z,958.94
2017-11-01T02:48:05.271Z,958.91
2017-11-01T02:49:05.252Z,958.94
2017-11-01T02:50:05.244Z,958.88
2017-11-01T02:51:05.225Z,958.85
2017-11-01T02:52:05.211Z,958.81
2017-11-01T02:53:05.196Z,958.81
2017-11-01T02:54:05.182Z,958.81
2017-11-01T02:55:05.166Z,958.84
2017-11-01T02:56:05.153Z,958.85
2017-11-01T02:57:05.138Z,958.88
2017-11-01T02:58:05.123Z,958.86
2017-11-01T02:59:05.110Z,958.88
2017-11-01T03:00:05.095Z,958.89
2017-11-01T03:01:05.080Z,958.9
2017-11-01T03:02:05.065Z,958.92
2017-11-01T03:03:05.051Z,958.88
2017-11-01T03:04:05.037Z,958.88
2017-11-01T03:05:05.022Z,958.86
2017-11-01T03:06:05.009Z,958.89
2017-11-01T03:07:04.993Z,958.84
2017-11-01T03:08:04.981Z,958.83
2017-11-01T03:09:04.964Z,958.84
2017-11-01T03:10:04.978Z,958.8
2017-11-01T03:11:04.937Z,958.85
2017-11-01T03:12:04.935Z,958.81
2017-11-01T03:13:04.906Z,958.84
2017-11-01T03:14:04.892Z,958.89
2017-11-01T03:15:04.879Z,958.83
2017-11-01T03:16:04.863Z,958.81
2017-11-01T03:17:04.865Z,958.81
2017-11-01T03:18:04.834Z,958.81
2017-11-01T03:19:04.822Z,958.78
2017-11-01T03:20:04.805Z,958.82
2017-11-01T03:21:04.791Z,958.8
2017-11-01T03:22:04.791Z,958.83
2017-11-01T03:23:04.764Z,958.82
2017-11-01T03:24:04.748Z,958.82
2017-11-01T03:25:04.734Z,958.86
2017-11-01T03:26:04.721Z,958.86
2017-11-01T03:27:04.720Z,958.88
2017-11-01T03:28:04.696Z,958.86
2017-11-01T03:29:04.676Z,958.84
2017-11-01T03:30:04.664Z,958.77
2017-11-01T03:31:04.647Z,958.81
2017-11-01T03:32:04.633Z,958.86
2017-11-01T03:33:04.618Z,958.86
2017-11-01T03:34:04.604Z,958.84
2017-11-01T03:35:04.589Z,958.89
2017-11-01T03:36:04.575Z,958.81
2017-11-01T03:37:04.561Z,958.81
2017-11-01T03:38:04.545Z,958.8
2017-11-01T03:39:04.531Z,958.77
2017-11-01T03:40:04.517Z,958.75
2017-11-01T03:41:04.504Z,958.74
2017-11-01T03:42:04.488Z,958.72
2017-11-01T03:43:04.473Z,958.72
2017-11-01T03:44:04.461Z,958.73
2017-11-01T03:45:04.446Z,958.73
2017-11-01T03:46:04.431Z,958.75
2017-11-01T03:47:04.416Z,958.74
2017-11-01T03:48:04.400Z,958.75
2017-11-01T03:49:04.387Z,958.74
2017-11-01T03:50:04.372Z,958.8
2017-11-01T03:51:04.357Z,958.72
2017-11-01T03:52:04.344Z,958.76
2017-11-01T03:53:04.328Z,958.75
2017-11-01T03:54:04.314Z,958.72
2017-11-01T03:55:04.299Z,958.74
2017-11-01T03:56:04.284Z,958.76
2017-11-01T03:57:04.269Z,958.73
2017-11-01T03:58:04.257Z,958.75
2017-11-01T03:59:04.240Z,958.75
2017-11-01T04:00:04.228Z,958.72
2017-11-01T04:01:04.212Z,958.74
2017-11-01T04:02:04.197Z,958.73
2017-11-01T04:03:04.184Z,958.7
2017-11-01T04:04:04.168Z,958.71
2017-11-01T04:05:04.154Z,958.68
2017-11-01T04:06:04.140Z,958.67
2017-11-01T04:07:04.137Z,958.68
2017-11-01T04:08:04.111Z,958.66
2017-11-01T04:09:04.095Z,958.68
2017-11-01T04:10:04.082Z,958.7
2017-11-01T04:11:04.065Z,958.67
2017-11-01T04:12:04.065Z,958.64
2017-11-01T04:13:04.037Z,958.64
2017-11-01T04:14:04.033Z,958.59
2017-11-01T04:15:04.009Z,958.63
2017-11-01T04:16:03.994Z,958.55
2017-11-01T04:17:03.981Z,958.6
2017-11-01T04:18:03.965Z,958.58
2017-11-01T04:19:03.952Z,958.53
2017-11-01T04:20:03.936Z,958.57
2017-11-01T04:21:03.926Z,958.57
2017-11-01T04:22:03.907Z,958.58
2017-11-01T04:23:03.892Z,958.58
2017-11-01T04:24:03.879Z,958.56
2017-11-01T04:25:03.864Z,958.59
2017-11-01T04:26:03.849Z,958.55
2017-11-01T04:27:03.833Z,958.52
2017-11-01T04:28:03.820Z,958.57
2017-11-01T04:29:03.809Z,958.51
2017-11-01T04:30:03.790Z,958.51
2017-11-01T04:31:03.777Z,958.53
2017-11-01T04:32:03.761Z,958.56
2017-11-01T04:33:03.746Z,958.54
2017-11-01T04:34:03.754Z,958.5
2017-11-01T04:35:03.725Z,958.55
2017-11-01T04:36:03.704Z,958.49
2017-11-01T04:37:03.688Z,958.52
2017-11-01T04:38:03.674Z,958.51
2017-11-01T04:39:03.661Z,958.46
2017-11-01T04:40:03.644Z,958.46
2017-11-01T04:41:03.632Z,958.47
2017-11-01T04:42:03.616Z,958.46
2017-11-01T04:43:03.601Z,958.5
2017-11-01T04:44:03.586Z,958.52
2017-11-01T04:45:03.572Z,958.49
2017-11-01T04:46:03.558Z,958.49
2017-11-01T04:47:03.544Z,958.53
2017-11-01T04:48:03.528Z,958.47
2017-11-01T04:49:03.515Z,958.48
2017-11-01T04:50:03.499Z,958.52
2017-11-01T04:51:03.484Z,958.48
2017-11-01T04:52:03.470Z,958.48
2017-11-01T04:53:03.455Z,958.53
2017-11-01T04:54:03.441Z,958.49
2017-11-01T04:55:03.425Z,958.52
2017-11-01T04:56:03.411Z,958.53
2017-11-01T04:57:03.395Z,958.51
2017-11-01T04:58:03.383Z,958.52
2017-11-01T04:59:03.366Z,958.53
2017-11-01T05:00:03.357Z,958.51
2017-11-01T05:01:03.337Z,958.47
2017-11-01T05:02:03.324Z,958.46
2017-11-01T05:03:03.331Z,958.5
2017-11-01T05:04:03.294Z,958.47
2017-11-01T05:05:03.298Z,958.46
2017-11-01T05:06:03.276Z,958.52
2017-11-01T05:07:03.250Z,958.51
2017-11-01T05:08:03.233Z,958.48
2017-11-01T05:09:03.220Z,958.43
2017-11-01T05:10:03.203Z,958.42
2017-11-01T05:11:03.191Z,958.42
2017-11-01T05:12:03.175Z,958.4
2017-11-01T05:13:03.160Z,958.48
2017-11-01T05:14:03.144Z,958.46
2017-11-01T05:15:03.134Z,958.46
2017-11-01T05:16:03.117Z,958.44
2017-11-01T05:17:03.103Z,958.38
2017-11-01T05:18:03.088Z,958.44
2017-11-01T05:19:03.072Z,958.38
2017-11-01T05:20:03.058Z,958.43
2017-11-01T05:21:03.051Z,958.41
2017-11-01T05:22:03.027Z,958.46
2017-11-01T05:23:03.018Z,958.45
2017-11-01T05:24:02.996Z,958.49
2017-11-01T05:25:02.985Z,958.45
2017-11-01T05:26:02.978Z,958.43
2017-11-01T05:27:02.955Z,958.49
2017-11-01T05:28:02.947Z,958.46
2017-11-01T05:29:02.941Z,958.48
2017-11-01T05:30:02.910Z,958.43
2017-11-01T05:31:02.895Z,958.44
2017-11-01T05:32:02.884Z,958.43
2017-11-01T05:33:02.864Z,958.43
2017-11-01T05:34:02.851Z,958.45
2017-11-01T05:35:02.841Z,958.46
2017-11-01T05:36:02.821Z,958.44
2017-11-01T05:37:02.805Z,958.45
2017-11-01T05:38:02.812Z,958.46
2017-11-01T05:39:02.776Z,958.45
2017-11-01T05:40:02.760Z,958.4
2017-11-01T05:41:02.747Z,958.42
2017-11-01T05:42:02.731Z,958.35
2017-11-01T05:43:02.716Z,958.43
2017-11-01T05:44:02.702Z,958.45
2017-11-01T05:45:02.687Z,958.45
2017-11-01T05:46:02.671Z,958.42
2017-11-01T05:47:02.681Z,958.36
2017-11-01T05:48:02.663Z,958.41
2017-11-01T05:49:02.628Z,958.37
2017-11-01T05:50:02.613Z,958.39
2017-11-01T05:51:02.598Z,958.37
2017-11-01T05:52:02.582Z,958.35
2017-11-01T05:53:02.568Z,958.36
2017-11-01T05:54:02.553Z,958.38
2017-11-01T05:55:02.537Z,958.39
2017-11-01T05:56:02.523Z,958.36
2017-11-01T05:57:02.507Z,958.38
2017-11-01T05:58:02.496Z,958.31
2017-11-01T05:59:02.480Z,958.38
2017-11-01T06:00:02.465Z,958.44
2017-11-01T06:01:02.449Z,958.38
2017-11-01T06:02:02.436Z,958.42
2017-11-01T06:03:02.419Z,958.48
2017-11-01T06:04:02.407Z,958.43
2017-11-01T06:05:02.390Z,958.46
2017-11-01T06:06:02.375Z,958.46
2017-11-01T06:07:02.361Z,958.48
2017-11-01T06:08:02.354Z,958.43
2017-11-01T06:09:02.330Z,958.46
2017-11-01T06:10:02.317Z,958.42
2017-11-01T06:11:02.300Z,958.43
2017-11-01T06:12:02.292Z,958.41
2017-11-01T06:13:02.272Z,958.43
2017-11-01T06:14:02.258Z,958.42
2017-11-01T06:15:02.282Z,958.46
2017-11-01T06:16:02.228Z,958.46
2017-11-01T06:17:02.231Z,958.46
2017-11-01T06:18:02.198Z,958.5
2017-11-01T06:19:02.182Z,958.47
2017-11-01T06:20:02.170Z,958.45
2017-11-01T06:21:02.154Z,958.48
2017-11-01T06:22:02.140Z,958.5
2017-11-01T06:23:02.123Z,958.46
2017-11-01T06:24:02.109Z,958.48
2017-11-01T06:25:02.095Z,958.54
2017-11-01T06:26:02.080Z,958.57
2017-11-01T06:27:02.065Z,958.53
2017-11-01T06:28:02.049Z,958.5
2017-11-01T06:29:02.035Z,958.53
2017-11-01T06:30:02.018Z,958.61
2017-11-01T06:31:02.004Z,958.55
2017-11-01T06:32:02.023Z,958.6
2017-11-01T06:33:01.975Z,958.57
2017-11-01T06:34:01.960Z,958.59
2017-11-01T06:35:01.945Z,958.56
2017-11-01T06:36:01.931Z,958.6
2017-11-01T06:37:01.914Z,958.58
2017-11-01T06:38:01.900Z,958.6
2017-11-01T06:39:01.889Z,958.57
2017-11-01T06:40:01.871Z,958.55
2017-11-01T06:41:01.854Z,958.56
2017-11-01T06:42:01.843Z,958.62
2017-11-01T06:43:01.826Z,958.59
2017-11-01T06:44:01.810Z,958.63
2017-11-01T06:45:01.795Z,958.62
2017-11-01T06:46:01.780Z,958.65
2017-11-01T06:47:01.788Z,958.72
2017-11-01T06:48:01.750Z,958.7
2017-11-01T06:49:01.736Z,958.69
2017-11-01T06:50:01.722Z,958.72
2017-11-01T06:51:01.709Z,958.75
2017-11-01T06:52:01.690Z,958.77
2017-11-01T06:53:01.676Z,958.77
2017-11-01T06:54:01.662Z,958.77
2017-11-01T06:55:01.650Z,958.75
2017-11-01T06:56:01.647Z,958.76
2017-11-01T06:57:01.620Z,958.76
2017-11-01T06:58:01.604Z,958.79
2017-11-01T06:59:01.588Z,958.76
2017-11-01T07:00:01.573Z,958.74
2017-11-01T07:01:01.557Z,958.71
2017-11-01T07:02:01.552Z,958.76
2017-11-01T07:03:01.538Z,958.75
2017-11-01T07:04:01.518Z,958.69
2017-11-01T07:05:01.499Z,958.74
2017-11-01T07:06:01.498Z,958.72
2017-11-01T07:07:01.470Z,958.79
2017-11-01T07:08:01.457Z,958.79
2017-11-01T07:09:01.441Z,958.79
2017-11-01T07:10:01.425Z,958.8
2017-11-01T07:11:01.410Z,958.84
2017-11-01T07:12:01.396Z,958.83
2017-11-01T07:13:01.430Z,958.87
2017-11-01T07:14:01.379Z,958.85
2017-11-01T07:15:01.352Z,958.83
2017-11-01T07:16:01.337Z,958.87
2017-11-01T07:17:01.338Z,958.88
2017-11-01T07:18:01.313Z,958.89
2017-11-01T07:19:01.293Z,958.9
2017-11-01T07:20:01.277Z,958.88
2017-11-01T07:21:01.264Z,958.89
2017-11-01T07:22:01.265Z,958.91
2017-11-01T07:23:01.232Z,958.88
2017-11-01T07:24:01.220Z,958.8
2017-11-01T07:25:01.205Z,958.91
2017-11-01T07:26:01.188Z,958.84
2017-11-01T07:27:01.176Z,958.85
2017-11-01T07:28:01.165Z,958.86
2017-11-01T07:29:01.144Z,958.87
2017-11-01T07:30:01.130Z,958.87
2017-11-01T07:31:01.115Z,958.87
2017-11-01T07:32:01.102Z,958.86
2017-11-01T07:33:01.085Z,958.81
2017-11-01T07:34:01.072Z,958.81
2017-11-01T07:35:01.057Z,958.84
2017-11-01T07:36:01.041Z,958.83
2017-11-01T07:37:01.026Z,958.81
2017-11-01T07:38:01.023Z,958.81
2017-11-01T07:39:00.999Z,958.81
2017-11-01T07:40:00.983Z,958.8
2017-11-01T07:41:00.968Z,958.77
2017-11-01T07:42:00.953Z,958.82
2017-11-01T07:43:00.939Z,958.85
2017-11-01T07:44:00.925Z,958.89
2017-11-01T07:45:00.920Z,958.92
2017-11-01T07:46:00.896Z,958.89
2017-11-01T07:47:00.883Z,958.89
2017-11-01T07:48:00.866Z,958.94
2017-11-01T07:49:00.851Z,958.85
2017-11-01T07:50:00.848Z,958.82
2017-11-01T07:51:00.823Z,958.82
2017-11-01T07:52:00.809Z,958.83
2017-11-01T07:53:00.794Z,958.85
2017-11-01T07:54:00.779Z,958.85
2017-11-01T07:55:00.772Z,958.81
2017-11-01T07:56:00.750Z,958.85
2017-11-01T07:57:00.737Z,958.86
2017-11-01T07:58:00.722Z,958.82
2017-11-01T07:59:00.708Z,958.78
2017-11-01T08:00:00.696Z,958.88
2017-11-01T08:01:00.678Z,958.9
2017-11-01T08:02:00.663Z,958.93
2017-11-01T08:03:00.650Z,958.95
2017-11-01T08:04:00.634Z,958.96
2017-11-01T08:05:00.619Z,958.89
2017-11-01T08:06:00.605Z,958.94
2017-11-01T08:07:00.603Z,958.87
2017-11-01T08:08:00.577Z,958.88
2017-11-01T08:09:00.562Z,958.95
2017-11-01T08:10:00.547Z,958.87
2017-11-01T08:11:00.534Z,958.97
2017-11-01T08:12:00.519Z,958.92
2017-11-01T08:13:00.504Z,958.97
2017-11-01T08:14:00.489Z,958.97
2017-11-01T08:15:00.476Z,958.96
2017-11-01T08:16:00.464Z,958.93
2017-11-01T08:17:00.446Z,958.94
2017-11-01T08:18:00.431Z,958.99
2017-11-01T08:19:00.426Z,958.98
2017-11-01T08:20:00.406Z,958.94
2017-11-01T08:21:00.390Z,958.98
2017-11-01T08:22:00.393Z,958.97
2017-11-01T08:23:00.360Z,959.02
2017-11-01T08:24:00.345Z,959.01
2017-11-01T08:25:00.332Z,959
2017-11-01T08:26:00.322Z,958.98
2017-11-01T08:27:00.303Z,958.98
2017-11-01T08:28:00.287Z,958.98
2017-11-01T08:29:00.275Z,959.01
2017-11-01T08:30:00.260Z,959.03
2017-11-01T08:31:00.296Z,958.97
2017-11-01T08:32:00.232Z,959.03
2017-11-01T08:33:00.216Z,959.03
2017-11-01T08:34:00.201Z,959
2017-11-01T08:35:00.188Z,959
2017-11-01T08:36:00.175Z,959.04
2017-11-01T08:37:00.159Z,959.01
2017-11-01T08:38:00.163Z,959
2017-11-01T08:39:00.131Z,959
2017-11-01T08:40:00.116Z,959.01
2017-11-01T08:41:00.122Z,958.97
2017-11-01T08:42:00.087Z,958.97
2017-11-01T08:43:00.073Z,958.99
2017-11-01T08:44:00.059Z,959.02
2017-11-01T08:45:00.048Z,959.01
2017-11-01T08:46:00.029Z,958.98
2017-11-01T08:47:00.016Z,959.01
2017-11-01T08:48:00.001Z,959.04
2017-11-01T08:48:59.988Z,959.09
2017-11-01T08:49:59.972Z,959.07
2017-11-01T08:50:59.961Z,959.15
2017-11-01T08:51:59.960Z,959.09
2017-11-01T08:52:59.929Z,959.1
2017-11-01T08:54:00.119Z,959.07
2017-11-01T08:54:59.901Z,959.13
2017-11-01T08:55:59.887Z,959.14
2017-11-01T08:56:59.872Z,959.15
2017-11-01T08:57:59.858Z,959.15
2017-11-01T08:58:59.867Z,959.15
2017-11-01T08:59:59.849Z,959.15
2017-11-01T09:00:59.819Z,959.16
2017-11-01T09:01:59.802Z,959.14
2017-11-01T09:02:59.788Z,959.2
2017-11-01T09:03:59.773Z,959.18
2017-11-01T09:04:59.767Z,959.14
2017-11-01T09:05:59.746Z,959.17
2017-11-01T09:06:59.729Z,959.14
2017-11-01T09:07:59.718Z,959.17
2017-11-01T09:08:59.703Z,959.22
2017-11-01T09:09:59.689Z,959.24
2017-11-01T09:10:59.674Z,959.2
2017-11-01T09:11:59.661Z,959.18
2017-11-01T09:12:59.647Z,959.17
2017-11-01T09:13:59.635Z,959.18
2017-11-01T09:14:59.635Z,959.18
2017-11-01T09:15:59.635Z,959.15
2017-11-01T09:16:59.592Z,959.16
2017-11-01T09:17:59.579Z,959.12
2017-11-01T09:18:59.563Z,959.1
2017-11-01T09:19:59.549Z,959.16
2017-11-01T09:20:59.564Z,959.06
2017-11-01T09:21:59.520Z,959.12
2017-11-01T09:22:59.506Z,959.11
2017-11-01T09:23:59.507Z,959.13
2017-11-01T09:24:59.537Z,959.13
2017-11-01T09:25:59.469Z,959.11
2017-11-01T09:26:59.453Z,959.17
2017-11-01T09:27:59.439Z,959.14
2017-11-01T09:28:59.425Z,959.14
2017-11-01T09:29:59.411Z,959.1
2017-11-01T09:30:59.402Z,959.08
2017-11-01T09:31:59.383Z,959.09
2017-11-01T09:32:59.367Z,959.08
2017-11-01T09:33:59.354Z,959.12
2017-11-01T09:34:59.340Z,959.09
2017-11-01T09:35:59.325Z,959.13
2017-11-01T09:36:59.313Z,959.15
2017-11-01T09:37:59.298Z,959.14
2017-11-01T09:38:59.285Z,959.11
2017-11-01T09:39:59.271Z,959.11
2017-11-01T09:40:59.260Z,959.12
2017-11-01T09:41:59.247Z,959.14
2017-11-01T09:42:59.230Z,959.11
2017-11-01T09:43:59.220Z,959.17
2017-11-01T09:44:59.203Z,959.15
2017-11-01T09:45:59.196Z,959.1
2017-11-01T09:46:59.174Z,959.17
2017-11-01T09:47:59.160Z,959.16
2017-11-01T09:48:59.146Z,959.19
2017-11-01T09:49:59.151Z,959.2
2017-11-01T09:50:59.119Z,959.2
2017-11-01T09:51:59.106Z,959.14
2017-11-01T09:52:59.092Z,959.15
2017-11-01T09:53:59.082Z,959.2
2017-11-01T09:54:59.079Z,959.24
2017-11-01T09:55:59.056Z,959.21
2017-11-01T09:56:59.037Z,959.21
2017-11-01T09:57:59.024Z,959.23
2017-11-01T09:58:59.010Z,959.18
2017-11-01T09:59:58.996Z,959.2
2017-11-01T10:00:58.984Z,959.23
2017-11-01T10:01:58.969Z,959.23
2017-11-01T10:02:58.955Z,959.18
2017-11-01T10:03:58.944Z,959.15
2017-11-01T10:04:58.929Z,959.12
2017-11-01T10:05:58.916Z,959.17
2017-11-01T10:06:58.902Z,959.12
2017-11-01T10:07:58.905Z,959.17
2017-11-01T10:08:58.874Z,959.1
2017-11-01T10:09:58.860Z,959.09
2017-11-01T10:10:58.849Z,959.08
2017-11-01T10:11:58.833Z,959.07
2017-11-01T10:12:58.820Z,959.07
2017-11-01T10:13:58.806Z,959.01
2017-11-01T10:14:58.795Z,959.03
2017-11-01T10:15:58.779Z,958.97
2017-11-01T10:16:58.767Z,958.92
2017-11-01T10:17:58.775Z,958.97
2017-11-01T10:18:58.740Z,958.95
2017-11-01T10:19:58.725Z,958.97
2017-11-01T10:20:58.769Z,959.05
2017-11-01T10:21:58.699Z,959.03
2017-11-01T10:22:58.715Z,959.05
2017-11-01T10:23:58.673Z,959.04
2017-11-01T10:24:58.658Z,958.98
2017-11-01T10:25:58.645Z,959.09
2017-11-01T10:26:58.634Z,959.06
2017-11-01T10:27:58.627Z,959.04
2017-11-01T10:28:58.605Z,959.04
2017-11-01T10:29:58.592Z,959.06
2017-11-01T10:30:58.577Z,959.07
2017-11-01T10:31:58.566Z,959.1
2017-11-01T10:32:58.553Z,959.03
2017-11-01T10:33:58.538Z,959
2017-11-01T10:34:58.526Z,958.98
2017-11-01T10:35:58.511Z,959
2017-11-01T10:36:58.498Z,958.93
2017-11-01T10:37:58.484Z,958.89
2017-11-01T10:38:58.471Z,958.88
2017-11-01T10:39:58.457Z,958.83
2017-11-01T10:40:58.445Z,958.85
2017-11-01T10:41:58.431Z,958.87
2017-11-01T10:42:58.417Z,958.87
2017-11-01T10:43:58.403Z,958.83
2017-11-01T10:44:58.390Z,958.87
2017-11-01T10:45:58.377Z,958.85
2017-11-01T10:46:58.364Z,958.87
2017-11-01T10:47:58.350Z,958.88
2017-11-01T10:48:58.337Z,958.93
2017-11-01T10:49:58.323Z,958.91
2017-11-01T10:50:58.314Z,958.95
2017-11-01T10:51:58.298Z,958.91
2017-11-01T10:52:58.285Z,958.94
2017-11-01T10:53:58.271Z,958.93
2017-11-01T10:54:58.259Z,958.85
2017-11-01T10:55:58.245Z,958.95
2017-11-01T10:56:58.232Z,958.94
2017-11-01T10:57:58.220Z,958.94
2017-11-01T10:58:58.205Z,958.96
2017-11-01T10:59:58.193Z,958.99
2017-11-01T11:00:58.180Z,958.92
2017-11-01T11:01:58.166Z,958.91
2017-11-01T11:02:58.153Z,958.93
2017-11-01T11:03:58.144Z,958.88
2017-11-01T11:04:58.127Z,958.87
2017-11-01T11:05:58.114Z,958.83
2017-11-01T11:06:58.101Z,958.89
2017-11-01T11:07:58.087Z,958.88
2017-11-01T11:08:58.074Z,958.86
2017-11-01T11:09:58.061Z,958.86
2017-11-01T11:10:58.067Z,958.81
2017-11-01T11:11:58.035Z,958.85
2017-11-01T11:12:58.028Z,958.86
2017-11-01T11:13:58.008Z,958.83
2017-11-01T11:14:58.002Z,958.79
2017-11-01T11:15:57.982Z,958.79
2017-11-01T11:16:57.969Z,958.78
2017-11-01T11:17:57.957Z,958.79
2017-11-01T11:18:57.942Z,958.83
2017-11-01T11:19:57.929Z,958.77
2017-11-01T11:20:57.917Z,958.8
2017-11-01T11:21:57.903Z,958.75
2017-11-01T11:22:57.899Z,958.75
2017-11-01T11:23:57.878Z,958.73
2017-11-01T11:24:57.892Z,958.76
2017-11-01T11:25:57.850Z,958.74
2017-11-01T11:26:57.853Z,958.75
2017-11-01T11:27:57.825Z,958.76
2017-11-01T11:28:57.812Z,958.75
2017-11-01T11:29:57.814Z,958.78
2017-11-01T11:30:57.787Z,958.83
2017-11-01T11:31:57.779Z,958.81
2017-11-01T11:32:57.760Z,958.8
2017-11-01T11:33:57.746Z,958.74
2017-11-01T11:34:57.734Z,958.78
2017-11-01T11:35:57.722Z,958.73
2017-11-01T11:36:57.708Z,958.67
2017-11-01T11:37:57.695Z,958.63
2017-11-01T11:38:57.682Z,958.64
2017-11-01T11:39:57.670Z,958.7
2017-11-01T11:40:57.656Z,958.65
2017-11-01T11:41:57.643Z,958.6
2017-11-01T11:42:57.631Z,958.63
2017-11-01T11:43:57.618Z,958.67
2017-11-01T11:44:57.608Z,958.63
2017-11-01T11:45:57.593Z,958.59
2017-11-01T11:46:57.581Z,958.58
2017-11-01T11:47:57.567Z,958.56
2017-11-01T11:48:57.555Z,958.6
2017-11-01T11:49:57.540Z,958.56
2017-11-01T11:50:57.529Z,958.53
2017-11-01T11:51:57.516Z,958.52
2017-11-01T11:52:57.502Z,958.58
2017-11-01T11:53:57.510Z,958.58
2017-11-01T11:54:57.477Z,958.6
2017-11-01T11:55:57.464Z,958.53
2017-11-01T11:56:57.452Z,958.5
2017-11-01T11:57:57.440Z,958.54
2017-11-01T11:58:57.427Z,958.45
2017-11-01T11:59:57.414Z,958.56
2017-11-01T12:00:57.401Z,958.45
2017-11-01T12:01:57.388Z,958.46
2017-11-01T12:02:57.374Z,958.52
2017-11-01T12:03:57.364Z,958.43
2017-11-01T12:04:57.349Z,958.42
2017-11-01T12:05:57.336Z,958.35
2017-11-01T12:06:57.324Z,958.35
2017-11-01T12:07:57.311Z,958.34
2017-11-01T12:08:57.299Z,958.28
2017-11-01T12:09:57.286Z,958.29
2017-11-01T12:10:57.274Z,958.31
2017-11-01T12:11:57.260Z,958.31
2017-11-01T12:12:57.248Z,958.29
2017-11-01T12:13:57.236Z,958.29
2017-11-01T12:14:57.222Z,958.3
2017-11-01T12:15:57.216Z,958.22
2017-11-01T12:16:57.198Z,958.3
2017-11-01T12:17:57.185Z,958.27
2017-11-01T12:18:57.174Z,958.29
2017-11-01T12:19:57.162Z,958.29
2017-11-01T12:20:57.149Z,958.23
2017-11-01T12:21:57.137Z,958.25
2017-11-01T12:22:57.125Z,958.2
2017-11-01T12:23:57.118Z,958.23
2017-11-01T12:24:57.101Z,958.18
2017-11-01T12:25:57.089Z,958.15
2017-11-01T12:26:57.075Z,958.1
2017-11-01T12:27:57.063Z,958.11
2017-11-01T12:28:57.051Z,958.05
2017-11-01T12:29:57.052Z,958.08
2017-11-01T12:30:57.029Z,958.07